CAW398 FIMP-FAOR
Flight info
| Callsign | CAW398 |
|---|---|
| Flight time | N/A |
| Altitude | 34000 |
| Route | SOBAT2A SOBAT UA401 SDG UG653 TU/N0451F360 UG653 SUNIR UT444 ETIVI DCT IMKAN UT446 IBGUB |
| Aircraft | B738/M-SDE2E3FGHIRWXY/LB1 |
Departure
| Time | 2026-05-07 07:16 |
|---|---|
| Airport | Sir Seewoosagur Ramgoolam International Airport (FIMP) |
Arrival
| Time | N/A |
|---|---|
| Airport | O.R. Tambo International Airport (FAOR) |
| Time | Latitude | Longitude | Altitude | Speed | Heading |
|---|---|---|---|---|---|
| 2026-05-07 06:54 | -20.43069 | 57.67634 | 173 ft | 0 kts | 207° |
| 2026-05-07 07:08 | -20.43066 | 57.67636 | 173 ft | 3 kts | 208° |
| 2026-05-07 07:09 | -20.43043 | 57.67650 | 173 ft | 4 kts | 216° |
| 2026-05-07 07:09 | -20.43021 | 57.67667 | 173 ft | 4 kts | 210° |
| 2026-05-07 07:09 | -20.43003 | 57.67678 | 173 ft | 4 kts | 225° |
| 2026-05-07 07:09 | -20.42993 | 57.67701 | 173 ft | 4 kts | 277° |
| 2026-05-07 07:10 | -20.42998 | 57.67719 | 172 ft | 0 kts | 297° |
| 2026-05-07 07:12 | -20.42996 | 57.67715 | 172 ft | 2 kts | 297° |
| 2026-05-07 07:12 | -20.42980 | 57.67679 | 173 ft | 9 kts | 297° |
| 2026-05-07 07:12 | -20.42926 | 57.67632 | 173 ft | 11 kts | 331° |
| 2026-05-07 07:13 | -20.42842 | 57.67580 | 172 ft | 15 kts | 322° |
| 2026-05-07 07:13 | -20.42787 | 57.67535 | 173 ft | 8 kts | 322° |
| 2026-05-07 07:13 | -20.42728 | 57.67489 | 175 ft | 12 kts | 331° |
| 2026-05-07 07:13 | -20.42641 | 57.67456 | 178 ft | 15 kts | 343° |
| 2026-05-07 07:14 | -20.42560 | 57.67385 | 180 ft | 18 kts | 297° |
| 2026-05-07 07:14 | -20.42511 | 57.67270 | 183 ft | 13 kts | 274° |
| 2026-05-07 07:14 | -20.42499 | 57.67207 | 183 ft | 6 kts | 3° |
| 2026-05-07 07:14 | -20.42495 | 57.67251 | 180 ft | 9 kts | 115° |
| 2026-05-07 07:15 | -20.42500 | 57.67261 | 184 ft | 0 kts | 121° |
| 2026-05-07 07:15 | -20.42567 | 57.67395 | 180 ft | 54 kts | 117° |
| 2026-05-07 07:15 | -20.42841 | 57.67966 | 158 ft | 119 kts | 117° |
| 2026-05-07 07:15 | -20.43305 | 57.68923 | 245 ft | 162 kts | 117° |
| 2026-05-07 07:16 | -20.43835 | 57.69994 | 929 ft | 168 kts | 118° |
| 2026-05-07 07:16 | -20.44384 | 57.71074 | 1759 ft | 162 kts | 115° |
| 2026-05-07 07:16 | -20.44902 | 57.72195 | 2304 ft | 180 kts | 114° |
| 2026-05-07 07:16 | -20.45633 | 57.73391 | 2498 ft | 210 kts | 139° |
| 2026-05-07 07:17 | -20.47082 | 57.73917 | 2746 ft | 240 kts | 177° |
| 2026-05-07 07:17 | -20.48760 | 57.73325 | 3078 ft | 268 kts | 215° |
| 2026-05-07 07:17 | -20.50059 | 57.71881 | 3768 ft | 277 kts | 228° |
| 2026-05-07 07:17 | -20.51260 | 57.70274 | 4662 ft | 276 kts | 229° |
| 2026-05-07 07:18 | -20.52454 | 57.68672 | 5526 ft | 276 kts | 229° |
| 2026-05-07 07:18 | -20.53670 | 57.67070 | 6318 ft | 279 kts | 230° |
| 2026-05-07 07:18 | -20.54909 | 57.65464 | 7080 ft | 281 kts | 230° |
| 2026-05-07 07:18 | -20.56171 | 57.63848 | 7787 ft | 285 kts | 229° |
| 2026-05-07 07:19 | -20.57475 | 57.62192 | 8503 ft | 289 kts | 229° |
| 2026-05-07 07:19 | -20.58758 | 57.60570 | 9212 ft | 292 kts | 228° |
| 2026-05-07 07:19 | -20.60084 | 57.58900 | 9871 ft | 295 kts | 228° |
| 2026-05-07 07:19 | -20.61433 | 57.57199 | 10049 ft | 296 kts | 228° |
| 2026-05-07 07:20 | -20.62766 | 57.55519 | 10084 ft | 296 kts | 227° |
| 2026-05-07 07:20 | -20.63854 | 57.53680 | 10080 ft | 301 kts | 250° |
| 2026-05-07 07:20 | -20.64121 | 57.51461 | 10161 ft | 311 kts | 274° |
| 2026-05-07 07:20 | -20.63707 | 57.49117 | 10337 ft | 332 kts | 282° |
| 2026-05-07 07:21 | -20.63155 | 57.46647 | 10485 ft | 353 kts | 282° |
| 2026-05-07 07:21 | -20.62585 | 57.44039 | 10799 ft | 365 kts | 282° |
| 2026-05-07 07:21 | -20.62026 | 57.41379 | 11323 ft | 370 kts | 279° |
| 2026-05-07 07:21 | -20.61884 | 57.38642 | 11923 ft | 369 kts | 263° |
| 2026-05-07 07:22 | -20.62134 | 57.35916 | 12585 ft | 370 kts | 262° |
| 2026-05-07 07:22 | -20.62420 | 57.33175 | 13158 ft | 374 kts | 261° |
| 2026-05-07 07:22 | -20.62708 | 57.30397 | 13699 ft | 378 kts | 262° |
| 2026-05-07 07:22 | -20.62988 | 57.27592 | 14253 ft | 381 kts | 262° |
| 2026-05-07 07:23 | -20.63259 | 57.24765 | 14807 ft | 383 kts | 262° |
| 2026-05-07 07:23 | -20.63522 | 57.21926 | 15327 ft | 386 kts | 262° |
| 2026-05-07 07:23 | -20.63783 | 57.19063 | 15849 ft | 389 kts | 262° |
| 2026-05-07 07:23 | -20.64042 | 57.16182 | 16368 ft | 391 kts | 263° |
| 2026-05-07 07:24 | -20.64302 | 57.13274 | 16891 ft | 394 kts | 263° |
| 2026-05-07 07:24 | -20.64561 | 57.10359 | 17398 ft | 397 kts | 263° |
| 2026-05-07 07:24 | -20.64735 | 57.08405 | 17734 ft | 399 kts | 263° |
| 2026-05-07 07:24 | -20.64997 | 57.05450 | 18250 ft | 401 kts | 263° |
| 2026-05-07 07:25 | -20.65525 | 56.99500 | 19124 ft | 406 kts | 263° |
| 2026-05-07 07:25 | -20.65879 | 56.95508 | 19659 ft | 409 kts | 264° |
| 2026-05-07 07:25 | -20.66146 | 56.92473 | 20055 ft | 412 kts | 264° |
| 2026-05-07 07:26 | -20.66328 | 56.90411 | 20323 ft | 414 kts | 264° |
| 2026-05-07 07:26 | -20.66597 | 56.87335 | 20719 ft | 417 kts | 264° |
| 2026-05-07 07:26 | -20.66863 | 56.84282 | 21117 ft | 419 kts | 264° |
| 2026-05-07 07:26 | -20.67133 | 56.81180 | 21507 ft | 422 kts | 264° |
| 2026-05-07 07:27 | -20.67404 | 56.78056 | 21882 ft | 424 kts | 264° |
| 2026-05-07 07:27 | -20.67677 | 56.74906 | 22250 ft | 427 kts | 264° |
| 2026-05-07 07:27 | -20.67951 | 56.71742 | 22607 ft | 430 kts | 264° |
| 2026-05-07 07:27 | -20.68226 | 56.68548 | 22956 ft | 432 kts | 264° |
| 2026-05-07 07:28 | -20.68502 | 56.65344 | 23297 ft | 435 kts | 265° |
| 2026-05-07 07:28 | -20.68779 | 56.62117 | 23636 ft | 437 kts | 265° |
| 2026-05-07 07:28 | -20.69057 | 56.58878 | 23926 ft | 439 kts | 265° |
| 2026-05-07 07:28 | -20.69335 | 56.55633 | 24234 ft | 440 kts | 264° |
| 2026-05-07 07:29 | -20.69614 | 56.52372 | 24548 ft | 441 kts | 264° |
| 2026-05-07 07:29 | -20.69892 | 56.49101 | 24846 ft | 442 kts | 264° |
| 2026-05-07 07:29 | -20.70171 | 56.45828 | 25137 ft | 443 kts | 264° |
| 2026-05-07 07:29 | -20.70450 | 56.42541 | 25420 ft | 445 kts | 264° |
| 2026-05-07 07:30 | -20.70729 | 56.39239 | 25691 ft | 446 kts | 264° |
| 2026-05-07 07:30 | -20.71008 | 56.35931 | 25966 ft | 448 kts | 264° |
| 2026-05-07 07:30 | -20.71287 | 56.32623 | 26234 ft | 449 kts | 264° |
| 2026-05-07 07:30 | -20.71566 | 56.29299 | 26508 ft | 450 kts | 264° |
| 2026-05-07 07:31 | -20.71863 | 56.26002 | 26770 ft | 451 kts | 261° |
| 2026-05-07 07:31 | -20.72409 | 56.22707 | 27031 ft | 451 kts | 256° |
| 2026-05-07 07:31 | -20.73137 | 56.19450 | 27286 ft | 452 kts | 254° |
| 2026-05-07 07:31 | -20.73931 | 56.16199 | 27547 ft | 453 kts | 253° |
| 2026-05-07 07:32 | -20.74730 | 56.12946 | 27788 ft | 454 kts | 254° |
| 2026-05-07 07:32 | -20.75515 | 56.09672 | 28024 ft | 456 kts | 254° |
| 2026-05-07 07:32 | -20.76279 | 56.06383 | 28257 ft | 457 kts | 255° |
| 2026-05-07 07:32 | -20.77027 | 56.03081 | 28488 ft | 458 kts | 255° |
| 2026-05-07 07:33 | -20.77767 | 55.99762 | 28720 ft | 459 kts | 255° |
| 2026-05-07 07:33 | -20.78504 | 55.96433 | 28930 ft | 461 kts | 255° |
| 2026-05-07 07:33 | -20.79241 | 55.93096 | 29136 ft | 462 kts | 255° |
| 2026-05-07 07:33 | -20.79978 | 55.89753 | 29351 ft | 463 kts | 255° |
| 2026-05-07 07:34 | -20.80717 | 55.86407 | 29574 ft | 464 kts | 255° |
| 2026-05-07 07:34 | -20.81457 | 55.83052 | 29877 ft | 462 kts | 255° |
| 2026-05-07 07:34 | -20.82192 | 55.79719 | 30212 ft | 460 kts | 255° |
| 2026-05-07 07:34 | -20.82916 | 55.76434 | 30479 ft | 459 kts | 255° |
| 2026-05-07 07:35 | -20.83646 | 55.73120 | 30727 ft | 458 kts | 255° |
| 2026-05-07 07:35 | -20.84374 | 55.69814 | 30988 ft | 457 kts | 255° |
| 2026-05-07 07:35 | -20.85102 | 55.66500 | 31257 ft | 456 kts | 255° |
| 2026-05-07 07:35 | -20.85825 | 55.63207 | 31526 ft | 455 kts | 255° |
| 2026-05-07 07:36 | -20.86547 | 55.59920 | 31790 ft | 454 kts | 255° |
| 2026-05-07 07:36 | -20.87266 | 55.56640 | 32045 ft | 453 kts | 255° |
| 2026-05-07 07:36 | -20.87986 | 55.53354 | 32305 ft | 452 kts | 255° |
| 2026-05-07 07:36 | -20.88705 | 55.50084 | 32580 ft | 451 kts | 255° |
| 2026-05-07 07:37 | -20.89476 | 55.46846 | 32847 ft | 450 kts | 253° |
| 2026-05-07 07:37 | -20.90293 | 55.43608 | 33111 ft | 449 kts | 253° |
| 2026-05-07 07:37 | -20.91119 | 55.40399 | 33397 ft | 448 kts | 253° |
| 2026-05-07 07:37 | -20.91948 | 55.37186 | 33664 ft | 447 kts | 253° |
| 2026-05-07 07:38 | -20.92766 | 55.33992 | 33927 ft | 446 kts | 253° |
| 2026-05-07 07:38 | -20.93571 | 55.30829 | 34078 ft | 448 kts | 253° |
| 2026-05-07 07:38 | -20.94384 | 55.27611 | 34063 ft | 450 kts | 253° |
| 2026-05-07 07:39 | -20.96006 | 55.21148 | 34061 ft | 447 kts | 253° |
| 2026-05-07 07:39 | -20.97600 | 55.14764 | 34063 ft | 443 kts | 253° |
| 2026-05-07 07:40 | -20.99186 | 55.08410 | 34071 ft | 441 kts | 253° |
| 2026-05-07 07:40 | -21.00766 | 55.02071 | 34072 ft | 441 kts | 253° |
| 2026-05-07 07:41 | -21.02342 | 54.95735 | 34075 ft | 440 kts | 253° |
| 2026-05-07 07:41 | -21.03915 | 54.89406 | 34074 ft | 441 kts | 253° |
| 2026-05-07 07:42 | -21.05490 | 54.83053 | 34075 ft | 442 kts | 253° |
| 2026-05-07 07:42 | -21.07067 | 54.76681 | 34078 ft | 443 kts | 253° |
| 2026-05-07 07:43 | -21.08633 | 54.70345 | 34074 ft | 444 kts | 253° |
| 2026-05-07 07:43 | -21.10211 | 54.63948 | 34080 ft | 445 kts | 254° |
| 2026-05-07 07:44 | -21.11790 | 54.57535 | 34076 ft | 445 kts | 254° |
| 2026-05-07 07:44 | -21.13366 | 54.51125 | 34074 ft | 446 kts | 254° |
| 2026-05-07 07:45 | -21.14943 | 54.44699 | 34076 ft | 446 kts | 254° |
| 2026-05-07 07:45 | -21.16515 | 54.38282 | 34073 ft | 445 kts | 254° |
| 2026-05-07 07:46 | -21.18084 | 54.31866 | 34077 ft | 445 kts | 254° |
| 2026-05-07 07:46 | -21.19637 | 54.25501 | 34077 ft | 444 kts | 254° |
| 2026-05-07 07:47 | -21.21196 | 54.19104 | 34076 ft | 444 kts | 254° |
| 2026-05-07 07:47 | -21.22751 | 54.12713 | 34079 ft | 443 kts | 254° |
| 2026-05-07 07:48 | -21.24301 | 54.06330 | 34079 ft | 442 kts | 254° |
| 2026-05-07 07:48 | -21.25847 | 53.99952 | 34079 ft | 442 kts | 254° |
| 2026-05-07 07:49 | -21.27391 | 53.93571 | 34075 ft | 441 kts | 254° |
| 2026-05-07 07:49 | -21.28929 | 53.87204 | 34074 ft | 441 kts | 254° |
| 2026-05-07 07:50 | -21.30452 | 53.80887 | 34082 ft | 441 kts | 254° |
| 2026-05-07 07:50 | -21.31987 | 53.74509 | 34082 ft | 441 kts | 254° |
| 2026-05-07 07:51 | -21.33516 | 53.68146 | 34075 ft | 441 kts | 255° |
| 2026-05-07 07:51 | -21.35045 | 53.61772 | 34076 ft | 441 kts | 255° |
| 2026-05-07 07:52 | -21.36575 | 53.55384 | 34075 ft | 442 kts | 255° |
| 2026-05-07 07:52 | -21.38100 | 53.49001 | 34074 ft | 442 kts | 255° |
| 2026-05-07 07:53 | -21.39614 | 53.42656 | 34079 ft | 442 kts | 255° |
| 2026-05-07 07:53 | -21.41137 | 53.36258 | 34079 ft | 443 kts | 255° |
| 2026-05-07 07:54 | -21.42660 | 53.29851 | 34076 ft | 443 kts | 255° |
| 2026-05-07 07:54 | -21.44179 | 53.23448 | 34076 ft | 443 kts | 255° |
| 2026-05-07 07:55 | -21.45696 | 53.17043 | 34077 ft | 443 kts | 255° |
| 2026-05-07 07:55 | -21.46977 | 53.10577 | 34021 ft | 445 kts | 262° |
| 2026-05-07 07:56 | -21.47327 | 53.03991 | 33519 ft | 452 kts | 282° |
| 2026-05-07 07:56 | -21.45851 | 53.01029 | 29195 ft | 449 kts | 320° |
| 2026-05-07 07:56 | -21.43198 | 53.00321 | 18871 ft | 364 kts | 28° |
| 2026-05-07 07:56 | -21.42256 | 53.02907 | 9373 ft | 453 kts | 101° |
| 2026-05-07 07:57 | -21.43713 | 53.05801 | 7263 ft | 420 kts | 135° |
| 2026-05-07 07:57 | -21.45908 | 53.07177 | 9606 ft | 313 kts | 164° |
| 2026-05-07 07:57 | -21.47823 | 53.07258 | 12008 ft | 254 kts | 189° |
| 2026-05-07 07:57 | -21.49459 | 53.06590 | 12880 ft | 262 kts | 208° |
| 2026-05-07 07:58 | -21.51063 | 53.05328 | 12282 ft | 316 kts | 219° |
| 2026-05-07 07:58 | -21.52733 | 53.03522 | 11832 ft | 359 kts | 227° |
| 2026-05-07 07:58 | -21.54253 | 53.01454 | 12987 ft | 336 kts | 233° |
| 2026-05-07 07:58 | -21.55418 | 52.99497 | 14951 ft | 287 kts | 238° |
| 2026-05-07 07:59 | -21.56309 | 52.97672 | 16171 ft | 273 kts | 242° |
| 2026-05-07 07:59 | -21.57123 | 52.95726 | 16064 ft | 305 kts | 245° |
| 2026-05-07 07:59 | -21.57928 | 52.93437 | 15280 ft | 359 kts | 255° |
| 2026-05-07 07:59 | -21.58059 | 52.90604 | 14589 ft | 397 kts | 275° |
| 2026-05-07 08:00 | -21.57655 | 52.87685 | 15075 ft | 394 kts | 279° |
| 2026-05-07 08:00 | -21.57204 | 52.84795 | 15739 ft | 392 kts | 274° |
| 2026-05-07 08:00 | -21.57232 | 52.81876 | 16334 ft | 391 kts | 261° |
| 2026-05-07 08:00 | -21.57770 | 52.79012 | 16862 ft | 393 kts | 254° |
| 2026-05-07 08:01 | -21.58436 | 52.76156 | 17380 ft | 396 kts | 254° |
| 2026-05-07 08:01 | -21.59118 | 52.73276 | 17933 ft | 399 kts | 254° |
| 2026-05-07 08:01 | -21.59800 | 52.70379 | 18454 ft | 402 kts | 254° |
| 2026-05-07 08:01 | -21.60479 | 52.67462 | 18920 ft | 404 kts | 254° |
| 2026-05-07 08:02 | -21.61157 | 52.64521 | 19384 ft | 406 kts | 254° |
| 2026-05-07 08:02 | -21.61830 | 52.61569 | 19853 ft | 408 kts | 255° |
| 2026-05-07 08:02 | -21.62505 | 52.58599 | 20300 ft | 411 kts | 255° |
| 2026-05-07 08:02 | -21.63183 | 52.55603 | 20749 ft | 413 kts | 255° |
| 2026-05-07 08:03 | -21.63862 | 52.52596 | 21195 ft | 415 kts | 255° |
| 2026-05-07 08:03 | -21.64543 | 52.49573 | 21612 ft | 418 kts | 255° |
| 2026-05-07 08:03 | -21.65228 | 52.46527 | 22025 ft | 420 kts | 255° |
| 2026-05-07 08:03 | -21.65912 | 52.43479 | 22436 ft | 422 kts | 255° |
| 2026-05-07 08:04 | -21.66603 | 52.40403 | 22860 ft | 423 kts | 255° |
| 2026-05-07 08:04 | -21.67295 | 52.37323 | 23268 ft | 425 kts | 255° |
| 2026-05-07 08:04 | -21.67990 | 52.34224 | 23653 ft | 427 kts | 255° |
| 2026-05-07 08:04 | -21.68678 | 52.31149 | 23961 ft | 429 kts | 255° |
| 2026-05-07 08:05 | -21.69376 | 52.28032 | 24301 ft | 430 kts | 255° |
| 2026-05-07 08:05 | -21.70083 | 52.24866 | 24644 ft | 431 kts | 255° |
| 2026-05-07 08:05 | -21.70775 | 52.21770 | 24965 ft | 432 kts | 255° |
| 2026-05-07 08:05 | -21.71477 | 52.18624 | 25288 ft | 433 kts | 255° |
| 2026-05-07 08:06 | -21.72179 | 52.15479 | 25585 ft | 434 kts | 256° |
| 2026-05-07 08:06 | -21.72885 | 52.12312 | 25881 ft | 436 kts | 256° |
| 2026-05-07 08:06 | -21.73591 | 52.09138 | 26177 ft | 437 kts | 256° |
| 2026-05-07 08:06 | -21.74300 | 52.05953 | 26467 ft | 438 kts | 256° |
| 2026-05-07 08:07 | -21.75008 | 52.02763 | 26742 ft | 440 kts | 256° |
| 2026-05-07 08:07 | -21.75719 | 51.99560 | 27008 ft | 442 kts | 256° |
| 2026-05-07 08:07 | -21.76434 | 51.96336 | 27268 ft | 443 kts | 256° |
| 2026-05-07 08:07 | -21.77150 | 51.93102 | 27537 ft | 445 kts | 256° |
| 2026-05-07 08:08 | -21.77867 | 51.89863 | 27797 ft | 446 kts | 256° |
| 2026-05-07 08:08 | -21.78585 | 51.86614 | 28042 ft | 448 kts | 256° |
| 2026-05-07 08:08 | -21.79307 | 51.83348 | 28288 ft | 449 kts | 256° |
| 2026-05-07 08:08 | -21.80032 | 51.80063 | 28530 ft | 451 kts | 256° |
| 2026-05-07 08:09 | -21.80755 | 51.76781 | 28753 ft | 452 kts | 256° |
| 2026-05-07 08:09 | -21.81481 | 51.73486 | 28983 ft | 454 kts | 256° |
| 2026-05-07 08:09 | -21.82201 | 51.70214 | 29198 ft | 455 kts | 256° |
| 2026-05-07 08:09 | -21.82929 | 51.66898 | 29421 ft | 457 kts | 256° |
| 2026-05-07 08:10 | -21.83661 | 51.63565 | 29641 ft | 458 kts | 256° |
| 2026-05-07 08:10 | -21.84393 | 51.60226 | 29941 ft | 457 kts | 256° |
| 2026-05-07 08:10 | -21.85120 | 51.56909 | 30282 ft | 455 kts | 256° |
| 2026-05-07 08:10 | -21.85845 | 51.53595 | 30594 ft | 453 kts | 257° |
| 2026-05-07 08:11 | -21.86564 | 51.50307 | 30862 ft | 452 kts | 257° |
| 2026-05-07 08:11 | -21.87285 | 51.47009 | 31119 ft | 452 kts | 257° |
| 2026-05-07 08:11 | -21.88001 | 51.43724 | 31409 ft | 450 kts | 257° |
| 2026-05-07 08:11 | -21.88717 | 51.40440 | 31726 ft | 448 kts | 257° |
| 2026-05-07 08:12 | -21.89425 | 51.37191 | 32030 ft | 447 kts | 257° |
| 2026-05-07 08:12 | -21.90133 | 51.33935 | 32313 ft | 446 kts | 257° |
| 2026-05-07 08:12 | -21.90841 | 51.30681 | 32610 ft | 445 kts | 257° |
| 2026-05-07 08:12 | -21.91542 | 51.27448 | 32918 ft | 443 kts | 257° |
| 2026-05-07 08:13 | -21.92242 | 51.24224 | 33223 ft | 442 kts | 257° |
| 2026-05-07 08:13 | -21.92941 | 51.20996 | 33517 ft | 441 kts | 257° |
| 2026-05-07 08:13 | -21.93635 | 51.17790 | 33816 ft | 440 kts | 257° |
| 2026-05-07 08:13 | -21.94320 | 51.14625 | 34092 ft | 439 kts | 257° |
| 2026-05-07 08:14 | -21.95014 | 51.11410 | 34067 ft | 443 kts | 257° |
| 2026-05-07 08:14 | -21.96407 | 51.04953 | 34079 ft | 441 kts | 257° |
| 2026-05-07 08:15 | -21.97783 | 50.98563 | 34079 ft | 436 kts | 257° |
| 2026-05-07 08:15 | -21.99148 | 50.92210 | 34089 ft | 435 kts | 257° |
| 2026-05-07 08:16 | -22.00513 | 50.85844 | 34090 ft | 435 kts | 257° |
| 2026-05-07 08:16 | -22.01872 | 50.79495 | 34086 ft | 435 kts | 257° |
| 2026-05-07 08:17 | -22.03230 | 50.73135 | 34086 ft | 436 kts | 257° |
| 2026-05-07 08:17 | -22.04579 | 50.66808 | 34087 ft | 436 kts | 257° |
| 2026-05-07 08:18 | -22.05936 | 50.60431 | 34082 ft | 437 kts | 258° |
| 2026-05-07 08:18 | -22.07290 | 50.54051 | 34089 ft | 437 kts | 258° |
| 2026-05-07 08:19 | -22.08647 | 50.47646 | 34086 ft | 438 kts | 258° |
| 2026-05-07 08:19 | -22.09999 | 50.41254 | 34088 ft | 438 kts | 258° |
| 2026-05-07 08:20 | -22.11349 | 50.34852 | 34086 ft | 438 kts | 258° |
| 2026-05-07 08:20 | -22.12700 | 50.28437 | 34086 ft | 438 kts | 258° |
| 2026-05-07 08:21 | -22.14048 | 50.22026 | 34088 ft | 438 kts | 258° |
| 2026-05-07 08:21 | -22.15381 | 50.15668 | 34082 ft | 438 kts | 258° |
| 2026-05-07 08:22 | -22.16722 | 50.09260 | 34085 ft | 438 kts | 258° |
| 2026-05-07 08:22 | -22.18060 | 50.02857 | 34084 ft | 438 kts | 258° |
| 2026-05-07 08:23 | -22.19395 | 49.96449 | 34083 ft | 437 kts | 258° |
| 2026-05-07 08:23 | -22.20727 | 49.90048 | 34083 ft | 437 kts | 258° |
| 2026-05-07 08:24 | -22.22054 | 49.83655 | 34083 ft | 437 kts | 258° |
| 2026-05-07 08:24 | -22.23372 | 49.77292 | 34083 ft | 437 kts | 258° |
| 2026-05-07 08:25 | -22.24693 | 49.70901 | 34081 ft | 436 kts | 258° |
| 2026-05-07 08:25 | -22.26012 | 49.64505 | 34083 ft | 436 kts | 258° |
| 2026-05-07 08:26 | -22.27985 | 49.54918 | 34081 ft | 436 kts | 258° |
| 2026-05-07 08:26 | -22.29297 | 49.48526 | 34084 ft | 436 kts | 258° |
| 2026-05-07 08:27 | -22.30605 | 49.42138 | 34082 ft | 436 kts | 258° |
| 2026-05-07 08:27 | -22.31904 | 49.35780 | 34079 ft | 436 kts | 258° |
| 2026-05-07 08:28 | -22.33206 | 49.29395 | 34078 ft | 436 kts | 258° |
| 2026-05-07 08:28 | -22.34507 | 49.23003 | 34082 ft | 436 kts | 258° |
| 2026-05-07 08:29 | -22.35808 | 49.16598 | 34079 ft | 436 kts | 258° |
| 2026-05-07 08:29 | -22.37103 | 49.10206 | 34078 ft | 436 kts | 258° |
| 2026-05-07 08:30 | -22.38398 | 49.03803 | 34083 ft | 436 kts | 258° |
| 2026-05-07 08:30 | -22.39687 | 48.97410 | 34076 ft | 436 kts | 258° |
| 2026-05-07 08:31 | -22.40976 | 48.91010 | 34079 ft | 436 kts | 258° |
| 2026-05-07 08:31 | -22.42253 | 48.84656 | 34081 ft | 436 kts | 258° |
| 2026-05-07 08:32 | -22.43535 | 48.78259 | 34080 ft | 435 kts | 258° |
| 2026-05-07 08:32 | -22.44813 | 48.71871 | 34078 ft | 435 kts | 258° |
| 2026-05-07 08:33 | -22.46090 | 48.65475 | 34081 ft | 435 kts | 258° |
| 2026-05-07 08:33 | -22.47363 | 48.59081 | 34077 ft | 435 kts | 259° |
| 2026-05-07 08:34 | -22.48418 | 48.53776 | 34078 ft | 434 kts | 259° |
| 2026-05-07 08:34 | -22.49890 | 48.46354 | 34075 ft | 434 kts | 259° |
| 2026-05-07 08:35 | -22.51153 | 48.39971 | 34074 ft | 434 kts | 259° |
| 2026-05-07 08:35 | -22.52412 | 48.33598 | 34077 ft | 434 kts | 259° |
| 2026-05-07 08:36 | -22.53668 | 48.27222 | 34075 ft | 433 kts | 259° |
| 2026-05-07 08:36 | -22.54710 | 48.21920 | 34075 ft | 433 kts | 259° |
| 2026-05-07 08:37 | -22.55962 | 48.15541 | 34076 ft | 433 kts | 259° |
| 2026-05-07 08:37 | -22.57210 | 48.09170 | 34074 ft | 433 kts | 259° |
| 2026-05-07 08:38 | -22.58455 | 48.02797 | 34071 ft | 433 kts | 259° |
| 2026-05-07 08:38 | -22.59710 | 47.96419 | 34071 ft | 433 kts | 258° |
| 2026-05-07 08:39 | -22.60995 | 47.90051 | 34072 ft | 433 kts | 258° |
| 2026-05-07 08:39 | -22.62273 | 47.83725 | 34072 ft | 433 kts | 258° |
| 2026-05-07 08:40 | -22.63553 | 47.77355 | 34069 ft | 433 kts | 258° |
| 2026-05-07 08:40 | -22.64830 | 47.70974 | 34066 ft | 434 kts | 258° |
| 2026-05-07 08:41 | -22.66104 | 47.64588 | 34069 ft | 434 kts | 258° |
| 2026-05-07 08:41 | -22.67377 | 47.58198 | 34068 ft | 434 kts | 258° |
| 2026-05-07 08:42 | -22.68648 | 47.51799 | 34070 ft | 434 kts | 258° |
| 2026-05-07 08:42 | -22.69916 | 47.45404 | 34074 ft | 434 kts | 258° |
| 2026-05-07 08:43 | -22.71182 | 47.39004 | 34078 ft | 434 kts | 258° |
| 2026-05-07 08:43 | -22.72436 | 47.32654 | 34074 ft | 434 kts | 258° |
| 2026-05-07 08:44 | -22.73695 | 47.26263 | 34079 ft | 434 kts | 258° |
| 2026-05-07 08:44 | -22.74950 | 47.19874 | 34072 ft | 434 kts | 258° |
| 2026-05-07 08:45 | -22.76205 | 47.13475 | 34081 ft | 434 kts | 258° |
| 2026-05-07 08:45 | -22.77457 | 47.07079 | 34082 ft | 434 kts | 258° |
| 2026-05-07 08:46 | -22.78706 | 47.00680 | 34079 ft | 434 kts | 258° |
| 2026-05-07 08:46 | -22.79952 | 46.94283 | 34083 ft | 434 kts | 258° |
| 2026-05-07 08:47 | -22.81195 | 46.87891 | 34080 ft | 434 kts | 259° |
| 2026-05-07 08:47 | -22.82435 | 46.81497 | 34079 ft | 434 kts | 259° |
| 2026-05-07 08:48 | -22.83665 | 46.75138 | 34085 ft | 434 kts | 259° |
| 2026-05-07 08:48 | -22.84901 | 46.68737 | 34082 ft | 434 kts | 259° |
| 2026-05-07 08:49 | -22.86131 | 46.62352 | 34089 ft | 433 kts | 259° |
| 2026-05-07 08:49 | -22.87365 | 46.55936 | 34094 ft | 433 kts | 259° |
| 2026-05-07 08:50 | -22.88598 | 46.49504 | 34095 ft | 433 kts | 259° |
| 2026-05-07 08:50 | -22.89813 | 46.43152 | 34092 ft | 433 kts | 259° |
| 2026-05-07 08:51 | -22.91033 | 46.36763 | 34095 ft | 432 kts | 259° |
| 2026-05-07 08:51 | -22.92247 | 46.30386 | 34081 ft | 432 kts | 259° |
| 2026-05-07 08:52 | -22.93460 | 46.24006 | 34081 ft | 431 kts | 259° |
| 2026-05-07 08:52 | -22.94665 | 46.17648 | 34086 ft | 431 kts | 259° |
| 2026-05-07 08:53 | -22.95870 | 46.11280 | 34078 ft | 431 kts | 259° |
| 2026-05-07 08:53 | -22.97071 | 46.04915 | 34076 ft | 430 kts | 259° |
| 2026-05-07 08:54 | -22.98269 | 45.98554 | 34064 ft | 430 kts | 259° |
| 2026-05-07 08:54 | -22.99463 | 45.92201 | 34056 ft | 430 kts | 259° |
| 2026-05-07 08:55 | -23.00655 | 45.85840 | 34052 ft | 429 kts | 259° |
| 2026-05-07 08:55 | -23.01843 | 45.79489 | 34038 ft | 429 kts | 259° |
| 2026-05-07 08:56 | -23.03019 | 45.73183 | 34033 ft | 429 kts | 259° |
| 2026-05-07 08:56 | -23.04199 | 45.66846 | 34034 ft | 428 kts | 259° |
| 2026-05-07 08:57 | -23.05376 | 45.60509 | 34029 ft | 428 kts | 260° |
| 2026-05-07 08:57 | -23.06551 | 45.54164 | 34099 ft | 431 kts | 260° |
| 2026-05-07 08:58 | -23.07139 | 45.50987 | 34357 ft | 430 kts | 260° |
| 2026-05-07 08:58 | -23.07725 | 45.47814 | 34728 ft | 426 kts | 260° |
| 2026-05-07 08:58 | -23.08306 | 45.44672 | 35043 ft | 423 kts | 260° |
| 2026-05-07 08:58 | -23.08881 | 45.41551 | 35298 ft | 422 kts | 260° |
| 2026-05-07 08:59 | -23.09458 | 45.38418 | 35506 ft | 423 kts | 260° |
| 2026-05-07 08:59 | -23.10032 | 45.35292 | 35728 ft | 422 kts | 261° |
| 2026-05-07 08:59 | -23.10605 | 45.32175 | 35986 ft | 421 kts | 261° |
| 2026-05-07 08:59 | -23.11180 | 45.29040 | 35993 ft | 425 kts | 261° |
| 2026-05-07 09:00 | -23.12323 | 45.22795 | 35999 ft | 422 kts | 261° |
| 2026-05-07 09:00 | -23.13469 | 45.16530 | 36010 ft | 418 kts | 261° |
| 2026-05-07 09:01 | -23.14586 | 45.10401 | 36016 ft | 416 kts | 261° |
| 2026-05-07 09:01 | -23.15705 | 45.04250 | 36008 ft | 414 kts | 261° |
| 2026-05-07 09:02 | -23.16818 | 44.98114 | 36012 ft | 414 kts | 261° |
| 2026-05-07 09:02 | -23.17930 | 44.91972 | 36005 ft | 415 kts | 261° |
| 2026-05-07 09:03 | -23.19042 | 44.85813 | 36005 ft | 416 kts | 261° |
| 2026-05-07 09:03 | -23.20156 | 44.79629 | 36005 ft | 418 kts | 261° |
| 2026-05-07 09:04 | -23.21264 | 44.73464 | 35998 ft | 419 kts | 261° |
| 2026-05-07 09:04 | -23.22381 | 44.67239 | 35997 ft | 421 kts | 261° |
| 2026-05-07 09:05 | -23.23501 | 44.60979 | 35989 ft | 422 kts | 261° |
| 2026-05-07 09:05 | -23.24619 | 44.54721 | 35984 ft | 422 kts | 261° |
| 2026-05-07 09:06 | -23.25736 | 44.48450 | 35989 ft | 422 kts | 261° |
| 2026-05-07 09:06 | -23.26850 | 44.42177 | 35985 ft | 422 kts | 261° |
| 2026-05-07 09:07 | -23.27959 | 44.35923 | 35985 ft | 421 kts | 261° |
| 2026-05-07 09:07 | -23.29055 | 44.29721 | 35977 ft | 420 kts | 261° |
| 2026-05-07 09:08 | -23.30154 | 44.23492 | 35985 ft | 418 kts | 261° |
| 2026-05-07 09:08 | -23.31245 | 44.17293 | 35980 ft | 417 kts | 261° |
| 2026-05-07 09:09 | -23.32330 | 44.11110 | 35977 ft | 416 kts | 261° |
| 2026-05-07 09:09 | -23.33413 | 44.04924 | 35974 ft | 415 kts | 261° |
| 2026-05-07 09:10 | -23.34490 | 43.98765 | 35975 ft | 414 kts | 261° |
| 2026-05-07 09:10 | -23.35556 | 43.92643 | 35967 ft | 414 kts | 262° |
| 2026-05-07 09:11 | -23.36625 | 43.86494 | 35972 ft | 413 kts | 262° |
| 2026-05-07 09:11 | -23.37692 | 43.80345 | 35969 ft | 414 kts | 262° |
| 2026-05-07 09:12 | -23.38756 | 43.74195 | 35965 ft | 414 kts | 262° |
| 2026-05-07 09:12 | -23.40069 | 43.68086 | 35973 ft | 415 kts | 257° |
| 2026-05-07 09:13 | -23.41658 | 43.62034 | 35972 ft | 416 kts | 256° |
| 2026-05-07 09:13 | -23.43259 | 43.55988 | 35975 ft | 416 kts | 257° |
| 2026-05-07 09:14 | -23.44836 | 43.49932 | 35975 ft | 416 kts | 257° |
| 2026-05-07 09:14 | -23.46396 | 43.43870 | 35978 ft | 416 kts | 257° |
| 2026-05-07 09:15 | -23.47951 | 43.37804 | 35981 ft | 416 kts | 257° |
| 2026-05-07 09:15 | -23.49499 | 43.31750 | 35977 ft | 415 kts | 257° |
| 2026-05-07 09:16 | -23.51046 | 43.25687 | 35988 ft | 415 kts | 257° |
| 2026-05-07 09:16 | -23.52589 | 43.19633 | 35984 ft | 414 kts | 257° |
| 2026-05-07 09:17 | -23.54128 | 43.13583 | 35985 ft | 414 kts | 257° |
| 2026-05-07 09:17 | -23.55653 | 43.07578 | 35988 ft | 413 kts | 257° |
| 2026-05-07 09:18 | -23.57183 | 43.01544 | 35980 ft | 413 kts | 257° |
| 2026-05-07 09:18 | -23.58707 | 42.95522 | 35981 ft | 412 kts | 258° |
| 2026-05-07 09:19 | -23.60226 | 42.89506 | 35981 ft | 412 kts | 258° |
| 2026-05-07 09:19 | -23.61744 | 42.83487 | 35980 ft | 411 kts | 258° |
| 2026-05-07 09:20 | -23.63254 | 42.77489 | 35983 ft | 411 kts | 258° |
| 2026-05-07 09:20 | -23.64764 | 42.71483 | 35989 ft | 410 kts | 258° |
| 2026-05-07 09:21 | -23.66279 | 42.65442 | 35992 ft | 410 kts | 258° |
| 2026-05-07 09:21 | -23.67774 | 42.59471 | 35991 ft | 410 kts | 258° |
| 2026-05-07 09:22 | -23.69272 | 42.53477 | 35989 ft | 410 kts | 258° |
| 2026-05-07 09:22 | -23.70769 | 42.47479 | 35988 ft | 410 kts | 258° |
| 2026-05-07 09:23 | -23.72263 | 42.41477 | 35990 ft | 410 kts | 258° |
| 2026-05-07 09:23 | -23.73754 | 42.35479 | 35990 ft | 410 kts | 258° |
| 2026-05-07 09:24 | -23.75242 | 42.29483 | 35992 ft | 409 kts | 258° |
| 2026-05-07 09:24 | -23.76729 | 42.23483 | 35992 ft | 409 kts | 258° |
| 2026-05-07 09:25 | -23.78213 | 42.17481 | 35992 ft | 409 kts | 258° |
| 2026-05-07 09:25 | -23.79683 | 42.11525 | 35992 ft | 409 kts | 258° |
| 2026-05-07 09:26 | -23.81171 | 42.05487 | 35994 ft | 409 kts | 258° |
| 2026-05-07 09:26 | -23.82635 | 41.99537 | 35991 ft | 409 kts | 258° |
| 2026-05-07 09:27 | -23.84107 | 41.93544 | 35993 ft | 408 kts | 258° |
| 2026-05-07 09:28 | -23.86307 | 41.84561 | 35997 ft | 408 kts | 258° |
| 2026-05-07 09:28 | -23.87768 | 41.78583 | 35995 ft | 408 kts | 258° |
| 2026-05-07 09:29 | -23.89228 | 41.72601 | 35995 ft | 407 kts | 259° |
| 2026-05-07 09:29 | -23.90684 | 41.66620 | 35995 ft | 407 kts | 259° |
| 2026-05-07 09:30 | -23.92137 | 41.60645 | 35995 ft | 407 kts | 259° |
| 2026-05-07 09:30 | -23.93589 | 41.54661 | 35997 ft | 407 kts | 259° |
| 2026-05-07 09:31 | -23.95034 | 41.48696 | 35998 ft | 407 kts | 259° |
| 2026-05-07 09:31 | -23.96480 | 41.42714 | 35994 ft | 406 kts | 259° |
| 2026-05-07 09:32 | -23.97922 | 41.36740 | 35995 ft | 406 kts | 259° |
| 2026-05-07 09:32 | -23.99128 | 41.31736 | 35996 ft | 406 kts | 259° |
| 2026-05-07 09:33 | -24.00564 | 41.25763 | 35995 ft | 406 kts | 259° |
| 2026-05-07 09:33 | -24.01997 | 41.19795 | 35994 ft | 406 kts | 259° |
| 2026-05-07 09:34 | -24.03429 | 41.13820 | 35996 ft | 406 kts | 259° |
| 2026-05-07 09:34 | -24.04857 | 41.07850 | 35994 ft | 406 kts | 259° |
| 2026-05-07 09:35 | -24.06284 | 41.01874 | 35993 ft | 406 kts | 259° |
| 2026-05-07 09:35 | -24.07707 | 40.95902 | 35993 ft | 406 kts | 259° |
| 2026-05-07 09:36 | -24.09126 | 40.89937 | 35992 ft | 406 kts | 259° |
| 2026-05-07 09:36 | -24.10544 | 40.83963 | 35993 ft | 406 kts | 259° |
| 2026-05-07 09:37 | -24.11951 | 40.78028 | 35993 ft | 405 kts | 259° |
| 2026-05-07 09:37 | -24.13365 | 40.72049 | 35991 ft | 405 kts | 259° |
| 2026-05-07 09:38 | -24.14776 | 40.66075 | 35988 ft | 405 kts | 259° |
| 2026-05-07 09:38 | -24.16184 | 40.60101 | 35987 ft | 405 kts | 259° |
| 2026-05-07 09:39 | -24.17590 | 40.54122 | 35986 ft | 405 kts | 260° |
| 2026-05-07 09:39 | -24.18994 | 40.48142 | 35987 ft | 405 kts | 260° |
| 2026-05-07 09:40 | -24.20394 | 40.42168 | 35985 ft | 405 kts | 260° |
| 2026-05-07 09:40 | -24.21794 | 40.36185 | 35982 ft | 405 kts | 260° |
| 2026-05-07 09:41 | -24.23181 | 40.30243 | 35982 ft | 405 kts | 260° |
| 2026-05-07 09:41 | -24.24575 | 40.24262 | 35982 ft | 405 kts | 260° |
| 2026-05-07 09:42 | -24.25966 | 40.18280 | 35985 ft | 405 kts | 260° |
| 2026-05-07 09:42 | -24.27353 | 40.12303 | 35977 ft | 405 kts | 260° |
| 2026-05-07 09:43 | -24.28047 | 40.09311 | 35976 ft | 405 kts | 260° |